createdAt,value
2023-05-25T00:01:00.529Z,16.38
2023-05-25T00:03:31.328Z,16.39
2023-05-25T00:06:02.391Z,16.18
2023-05-25T00:08:30.316Z,15.89
2023-05-25T00:10:58.205Z,16.02
2023-05-25T00:13:26.023Z,15.83
2023-05-25T00:15:53.820Z,15.56
2023-05-25T00:18:21.808Z,15.59
2023-05-25T00:20:49.571Z,15.37
2023-05-25T00:23:18.686Z,15.67
2023-05-25T00:25:46.624Z,15.35
2023-05-25T00:28:14.497Z,15.54
2023-05-25T00:30:42.320Z,15.55
2023-05-25T00:33:10.660Z,15.32
2023-05-25T00:35:38.545Z,15.38
2023-05-25T00:38:06.280Z,15.41
2023-05-25T00:40:36.748Z,15.52
2023-05-25T00:43:04.541Z,15.28
2023-05-25T00:45:32.312Z,15.29
2023-05-25T00:48:01.480Z,15.29
2023-05-25T00:50:38.562Z,15.25
2023-05-25T00:53:07.159Z,15.07
2023-05-25T00:55:38.345Z,15.06
2023-05-25T00:58:06.689Z,15.19
2023-05-25T01:00:35.957Z,15.15
2023-05-25T01:03:11.789Z,15.16
2023-05-25T01:05:45.121Z,14.77
2023-05-25T01:08:15.110Z,14.89
2023-05-25T01:10:47.021Z,14.82
2023-05-25T01:13:18.364Z,14.59
2023-05-25T01:15:46.547Z,14.45
2023-05-25T01:18:16.053Z,14.67
2023-05-25T01:21:13.000Z,14.97
2023-05-25T01:23:45.269Z,15.00
2023-05-25T01:26:16.645Z,14.98
2023-05-25T01:28:51.109Z,14.69
2023-05-25T01:31:21.881Z,14.63
2023-05-25T01:33:51.543Z,14.48
2023-05-25T01:36:20.941Z,14.73
2023-05-25T01:38:49.766Z,14.51
2023-05-25T01:41:17.543Z,14.47
2023-05-25T01:43:45.599Z,14.81
2023-05-25T01:46:19.816Z,14.45
2023-05-25T01:48:55.922Z,14.03
2023-05-25T01:51:33.367Z,14.44
2023-05-25T01:54:08.505Z,14.74
2023-05-25T01:56:37.234Z,14.05
2023-05-25T01:59:07.663Z,14.18
2023-05-25T02:01:37.581Z,14.28
2023-05-25T02:04:05.884Z,14.49
2023-05-25T02:06:36.879Z,14.54
2023-05-25T02:09:05.049Z,14.41
2023-05-25T02:11:32.793Z,14.54
2023-05-25T02:14:00.554Z,14.33
2023-05-25T02:16:29.912Z,14.19
2023-05-25T02:18:59.161Z,14.01
2023-05-25T02:21:26.985Z,14.37
2023-05-25T02:23:58.096Z,14.30
2023-05-25T02:26:26.425Z,14.15
2023-05-25T02:28:54.280Z,14.18
2023-05-25T02:31:22.126Z,14.21
2023-05-25T02:33:49.918Z,14.15
2023-05-25T02:36:17.649Z,13.95
2023-05-25T02:38:45.935Z,14.35
2023-05-25T02:41:16.479Z,14.54
2023-05-25T02:43:44.321Z,14.06
2023-05-25T02:46:12.067Z,14.23
2023-05-25T02:48:40.040Z,14.25
2023-05-25T02:51:07.782Z,14.26
2023-05-25T02:53:35.540Z,13.88
2023-05-25T02:56:03.951Z,14.23
2023-05-25T02:58:33.167Z,14.24
2023-05-25T03:01:01.236Z,13.93
2023-05-25T03:03:29.204Z,14.01
2023-05-25T03:05:58.427Z,14.04
2023-05-25T03:08:26.217Z,14.31
2023-05-25T03:10:54.020Z,14.25
2023-05-25T03:13:21.744Z,14.55
2023-05-25T03:15:51.072Z,14.45
2023-05-25T03:18:19.021Z,14.44
2023-05-25T03:20:46.841Z,14.01
2023-05-25T03:23:14.786Z,13.86
2023-05-25T03:25:42.788Z,13.88
2023-05-25T03:28:10.843Z,14.07
2023-05-25T03:30:38.603Z,14.11
2023-05-25T03:33:07.778Z,13.81
2023-05-25T03:35:35.490Z,13.91
2023-05-25T03:38:03.224Z,13.88
2023-05-25T03:40:31.044Z,13.89
2023-05-25T03:42:58.804Z,13.78
2023-05-25T03:45:26.543Z,13.87
2023-05-25T03:47:54.323Z,14.14
2023-05-25T03:50:23.504Z,14.04
2023-05-25T03:52:51.285Z,14.14
2023-05-25T03:55:19.539Z,14.02
2023-05-25T03:57:47.295Z,14.03
2023-05-25T04:00:16.891Z,13.80
2023-05-25T04:02:44.868Z,13.56
2023-05-25T04:05:12.633Z,13.78
2023-05-25T04:07:41.748Z,14.08
2023-05-25T04:10:10.037Z,13.75
2023-05-25T04:12:38.527Z,13.65
2023-05-25T04:15:09.147Z,14.16
2023-05-25T04:17:39.652Z,14.07
2023-05-25T04:20:09.838Z,13.92
2023-05-25T04:22:38.927Z,14.30
2023-05-25T04:25:08.930Z,13.90
2023-05-25T04:27:36.697Z,13.73
2023-05-25T04:30:04.836Z,14.09
2023-05-25T04:32:32.871Z,13.89
2023-05-25T04:35:00.642Z,14.24
2023-05-25T04:37:29.043Z,14.10
2023-05-25T04:39:57.687Z,13.53
2023-05-25T04:42:27.021Z,14.27
2023-05-25T04:44:55.775Z,14.28
2023-05-25T04:47:24.939Z,14.10
2023-05-25T04:49:52.955Z,14.29
2023-05-25T04:52:20.718Z,14.45
2023-05-25T04:54:48.506Z,14.31
2023-05-25T04:57:16.410Z,14.36
2023-05-25T04:59:45.761Z,14.71
2023-05-25T05:02:13.718Z,15.03
2023-05-25T05:04:42.382Z,14.35
2023-05-25T05:07:10.177Z,14.89
2023-05-25T05:09:37.890Z,14.65
2023-05-25T05:12:06.309Z,14.70
2023-05-25T05:14:34.033Z,14.85
2023-05-25T05:17:03.483Z,15.30
2023-05-25T05:19:31.405Z,15.39
2023-05-25T05:21:59.133Z,15.35
2023-05-25T05:24:27.253Z,15.48
2023-05-25T05:26:58.967Z,15.12
2023-05-25T05:29:28.651Z,15.38
2023-05-25T05:31:56.765Z,15.71
2023-05-25T05:34:25.983Z,15.50
2023-05-25T05:36:57.894Z,15.53
2023-05-25T05:39:27.092Z,15.64
2023-05-25T05:41:54.868Z,15.54
2023-05-25T05:44:26.014Z,15.39
2023-05-25T05:47:01.145Z,15.11
2023-05-25T05:49:31.751Z,15.21
2023-05-25T05:51:59.935Z,15.74
2023-05-25T05:54:28.615Z,16.00
2023-05-25T05:56:56.431Z,15.76
2023-05-25T05:59:24.321Z,15.70
2023-05-25T06:01:52.156Z,15.73
2023-05-25T06:04:20.337Z,16.08
2023-05-25T06:06:49.455Z,15.74
2023-05-25T06:09:17.280Z,15.75
2023-05-25T06:11:45.253Z,15.81
2023-05-25T06:14:12.997Z,15.85
2023-05-25T06:16:40.895Z,15.76
2023-05-25T06:19:08.729Z,16.33
2023-05-25T06:21:36.990Z,16.33
2023-05-25T06:24:07.177Z,16.04
2023-05-25T06:26:34.958Z,16.13
2023-05-25T06:29:02.895Z,16.39
2023-05-25T06:31:30.901Z,16.02
2023-05-25T06:33:58.781Z,16.65
2023-05-25T06:36:27.485Z,16.83
2023-05-25T06:38:55.474Z,16.80
2023-05-25T06:41:24.602Z,16.90
2023-05-25T06:43:52.400Z,16.75
2023-05-25T06:46:21.525Z,16.83
2023-05-25T06:48:49.339Z,16.29
2023-05-25T06:51:17.094Z,16.99
2023-05-25T06:53:45.264Z,16.83
2023-05-25T06:56:12.980Z,17.29
2023-05-25T06:58:42.174Z,17.41
2023-05-25T07:01:09.894Z,17.18
2023-05-25T07:03:38.667Z,17.36
2023-05-25T07:06:07.396Z,16.79
2023-05-25T07:08:35.316Z,17.22
2023-05-25T07:11:03.051Z,17.48
2023-05-25T07:13:30.893Z,17.44
2023-05-25T07:16:00.023Z,17.03
2023-05-25T07:18:27.884Z,17.05
2023-05-25T07:20:55.773Z,16.98
2023-05-25T07:23:27.076Z,17.28
2023-05-25T07:25:56.510Z,17.80
2023-05-25T07:28:24.314Z,17.93
2023-05-25T07:30:52.091Z,18.26
2023-05-25T07:33:22.033Z,18.00
2023-05-25T07:35:51.244Z,17.96
2023-05-25T07:38:19.013Z,18.42
2023-05-25T07:40:47.497Z,18.40
2023-05-25T07:43:15.466Z,18.04
2023-05-25T07:45:44.370Z,18.49
2023-05-25T07:48:19.077Z,18.35
2023-05-25T07:50:48.225Z,18.74
2023-05-25T07:53:15.997Z,18.92
2023-05-25T07:55:44.006Z,18.78
2023-05-25T07:58:11.863Z,18.86
2023-05-25T08:00:39.734Z,18.46
2023-05-25T08:03:07.762Z,18.52
2023-05-25T08:05:35.710Z,17.94
2023-05-25T08:08:04.888Z,18.33
2023-05-25T08:10:32.670Z,18.14
2023-05-25T08:13:00.682Z,18.37
2023-05-25T08:15:28.506Z,19.01
2023-05-25T08:17:56.905Z,19.34
2023-05-25T08:20:25.842Z,19.29
2023-05-25T08:22:54.542Z,19.39
2023-05-25T08:25:23.741Z,19.04
2023-05-25T08:27:51.686Z,19.01
2023-05-25T08:30:19.479Z,18.92
2023-05-25T08:32:47.448Z,19.21
2023-05-25T08:35:15.495Z,19.20
2023-05-25T08:37:43.544Z,19.49
2023-05-25T08:40:15.855Z,18.95
2023-05-25T08:42:45.797Z,19.37
2023-05-25T08:45:26.366Z,19.67
2023-05-25T08:48:02.605Z,20.14
2023-05-25T08:50:33.528Z,19.74
2023-05-25T08:53:06.328Z,18.97
2023-05-25T08:55:36.916Z,18.77
2023-05-25T08:58:15.602Z,18.93
2023-05-25T09:00:49.791Z,19.40
2023-05-25T09:03:19.029Z,19.35
2023-05-25T09:05:47.694Z,19.42
2023-05-25T09:08:16.567Z,19.61
2023-05-25T09:10:44.528Z,19.47
2023-05-25T09:13:21.991Z,19.46
2023-05-25T09:15:52.061Z,20.09
2023-05-25T09:18:20.051Z,20.56
2023-05-25T09:20:48.190Z,19.74
2023-05-25T09:23:16.602Z,20.48
2023-05-25T09:25:45.373Z,20.36
2023-05-25T09:30:46.448Z,21.08
2023-05-25T09:33:17.650Z,20.98
2023-05-25T09:35:46.411Z,20.44
2023-05-25T09:38:14.962Z,20.08
2023-05-25T09:40:43.907Z,20.42
2023-05-25T09:43:15.755Z,20.14
2023-05-25T09:45:53.460Z,20.16
2023-05-25T09:48:23.132Z,20.36
2023-05-25T09:50:52.137Z,20.25
2023-05-25T09:53:20.160Z,19.81
2023-05-25T09:55:53.682Z,20.05
2023-05-25T09:58:23.900Z,20.02
2023-05-25T10:00:55.851Z,20.12
2023-05-25T10:03:23.812Z,19.82
2023-05-25T10:05:52.908Z,19.94
2023-05-25T10:08:23.447Z,19.60
2023-05-25T10:10:51.470Z,19.17
2023-05-25T10:13:22.857Z,19.85
2023-05-25T10:15:55.287Z,20.18
2023-05-25T10:18:26.715Z,20.28
2023-05-25T10:21:03.007Z,19.86
2023-05-25T10:23:37.006Z,20.02
2023-05-25T10:26:08.699Z,20.38
2023-05-25T10:28:38.116Z,20.73
2023-05-25T10:31:10.283Z,20.75
2023-05-25T10:33:38.715Z,21.15
2023-05-25T10:36:11.277Z,21.17
2023-05-25T10:38:41.185Z,20.89
2023-05-25T10:41:11.575Z,20.15
2023-05-25T10:43:41.041Z,20.64
2023-05-25T10:46:12.119Z,20.81
2023-05-25T10:48:41.343Z,20.50
2023-05-25T10:51:11.829Z,21.13
2023-05-25T10:53:40.053Z,21.29
2023-05-25T10:56:10.548Z,20.81
2023-05-25T10:58:42.673Z,20.75
2023-05-25T11:01:13.898Z,20.36
2023-05-25T11:03:58.734Z,20.63
2023-05-25T11:06:59.008Z,21.17
2023-05-25T11:09:27.726Z,21.46
2023-05-25T11:12:08.612Z,21.67
2023-05-25T11:14:39.837Z,21.69
2023-05-25T11:17:11.830Z,21.87
2023-05-25T11:19:42.469Z,21.98
2023-05-25T11:22:17.875Z,21.99
2023-05-25T11:24:46.127Z,21.31
2023-05-25T11:27:14.725Z,21.60
2023-05-25T11:29:42.667Z,22.06
2023-05-25T11:32:16.200Z,22.50
2023-05-25T11:34:46.774Z,22.09
2023-05-25T11:37:17.535Z,21.68
2023-05-25T11:39:47.961Z,22.42
2023-05-25T11:42:16.688Z,22.11
2023-05-25T11:44:45.072Z,22.29
2023-05-25T11:47:18.716Z,22.42
2023-05-25T11:49:49.783Z,22.68
2023-05-25T11:52:19.269Z,22.18
2023-05-25T11:54:47.342Z,22.45
2023-05-25T11:57:16.247Z,21.88
2023-05-25T11:59:50.961Z,22.33
2023-05-25T12:02:20.909Z,22.16
2023-05-25T12:04:56.112Z,21.98
2023-05-25T12:07:24.826Z,22.35
2023-05-25T12:09:52.722Z,22.59
2023-05-25T12:12:20.920Z,23.01
2023-05-25T12:14:49.357Z,23.04
2023-05-25T12:17:18.192Z,22.99
2023-05-25T12:19:47.498Z,22.26
2023-05-25T12:22:16.385Z,22.79
2023-05-25T12:24:44.363Z,23.18
2023-05-25T12:27:18.540Z,23.21
2023-05-25T12:29:50.204Z,23.59
2023-05-25T12:32:17.982Z,23.92
2023-05-25T12:34:47.151Z,24.36
2023-05-25T12:37:22.400Z,23.81
2023-05-25T12:39:50.821Z,23.68
2023-05-25T12:42:19.306Z,23.02
2023-05-25T12:44:47.531Z,23.37
2023-05-25T12:47:17.206Z,23.94
2023-05-25T12:49:47.774Z,23.93
2023-05-25T12:52:33.557Z,24.56
2023-05-25T12:55:20.384Z,24.83
2023-05-25T12:57:52.416Z,24.48
2023-05-25T13:00:24.220Z,24.37
2023-05-25T13:02:52.544Z,23.66
2023-05-25T13:05:23.379Z,23.96
2023-05-25T13:07:52.210Z,24.96
2023-05-25T13:10:20.315Z,23.74
2023-05-25T13:12:48.848Z,23.71
2023-05-25T13:15:18.616Z,24.67
2023-05-25T13:17:46.448Z,24.88
2023-05-25T13:20:15.141Z,24.99
2023-05-25T13:22:45.319Z,24.29
2023-05-25T13:25:14.488Z,25.26
2023-05-25T13:27:45.620Z,25.34
2023-05-25T13:30:14.696Z,24.59
2023-05-25T13:32:43.750Z,24.50
2023-05-25T13:35:18.459Z,24.86
2023-05-25T13:37:47.619Z,25.03
2023-05-25T13:40:15.609Z,24.97
2023-05-25T13:42:43.332Z,25.25
2023-05-25T13:45:11.849Z,25.11
2023-05-25T13:47:39.775Z,25.57
2023-05-25T13:50:08.410Z,25.59
2023-05-25T13:52:37.026Z,25.31
2023-05-25T13:55:07.413Z,24.75
2023-05-25T13:57:35.210Z,24.83
2023-05-25T14:00:03.007Z,25.41
2023-05-25T14:02:32.147Z,25.54
2023-05-25T14:05:00.016Z,24.88
2023-05-25T14:07:27.772Z,25.30
2023-05-25T14:09:56.688Z,25.36
2023-05-25T14:12:27.201Z,25.19
2023-05-25T14:14:54.931Z,25.52
2023-05-25T14:17:22.702Z,25.54
2023-05-25T14:19:50.505Z,25.34
2023-05-25T14:22:18.276Z,25.35
2023-05-25T14:24:46.021Z,24.95
2023-05-25T14:27:15.992Z,24.92
2023-05-25T14:29:45.155Z,25.31
2023-05-25T14:32:14.480Z,25.39
2023-05-25T14:34:42.792Z,25.57
2023-05-25T14:37:11.143Z,25.63
2023-05-25T14:39:39.080Z,25.58
2023-05-25T14:42:07.101Z,25.09
2023-05-25T14:44:34.866Z,24.83
2023-05-25T14:47:04.179Z,24.55
2023-05-25T14:49:32.348Z,24.48
2023-05-25T14:52:00.101Z,24.78
2023-05-25T14:54:27.865Z,24.89
2023-05-25T14:56:55.610Z,24.66
2023-05-25T14:59:23.415Z,25.01
2023-05-25T15:01:52.707Z,24.88
2023-05-25T15:04:22.082Z,25.14
2023-05-25T15:06:49.913Z,25.54
2023-05-25T15:09:19.228Z,25.22
2023-05-25T15:11:47.063Z,25.31
2023-05-25T15:14:16.289Z,25.51
2023-05-25T15:16:44.339Z,25.18
2023-05-25T15:19:13.919Z,25.87
2023-05-25T15:21:45.146Z,25.21
2023-05-25T15:24:16.563Z,24.70
2023-05-25T15:26:44.448Z,24.21
2023-05-25T15:29:12.884Z,23.96
2023-05-25T15:31:40.765Z,24.90
2023-05-25T15:34:09.158Z,25.03
2023-05-25T15:36:36.996Z,24.29
2023-05-25T15:39:08.916Z,24.42
2023-05-25T15:41:36.834Z,24.39
2023-05-25T15:44:08.232Z,24.25
2023-05-25T15:46:36.289Z,24.85
2023-05-25T15:49:10.748Z,24.61
2023-05-25T15:51:43.778Z,24.26
2023-05-25T15:54:14.861Z,24.73
2023-05-25T15:56:42.990Z,25.05
2023-05-25T15:59:12.688Z,24.94
2023-05-25T16:01:40.881Z,24.83
2023-05-25T16:04:09.165Z,25.11
2023-05-25T16:06:38.374Z,24.03
2023-05-25T16:09:06.691Z,24.11
2023-05-25T16:11:35.865Z,24.57
2023-05-25T16:14:03.773Z,25.00
2023-05-25T16:16:31.637Z,25.16
2023-05-25T16:18:59.511Z,24.74
2023-05-25T16:21:27.278Z,24.45
2023-05-25T16:23:55.026Z,24.09
2023-05-25T16:26:22.808Z,24.29
2023-05-25T16:28:52.398Z,24.36
2023-05-25T16:31:20.229Z,24.69
2023-05-25T16:33:48.059Z,23.81
2023-05-25T16:36:17.035Z,23.38
2023-05-25T16:38:45.796Z,23.79
2023-05-25T16:41:13.717Z,24.40
2023-05-25T16:43:41.537Z,23.74
2023-05-25T16:46:10.687Z,23.77
2023-05-25T16:48:38.457Z,23.58
2023-05-25T16:51:07.346Z,23.30
2023-05-25T16:53:35.303Z,23.47
2023-05-25T16:56:03.070Z,23.85
2023-05-25T16:58:30.979Z,23.40
2023-05-25T17:00:58.760Z,23.54
2023-05-25T17:03:28.006Z,23.55
2023-05-25T17:05:55.916Z,22.98
2023-05-25T17:08:23.661Z,23.11
2023-05-25T17:10:51.502Z,23.22
2023-05-25T17:13:19.267Z,23.03
2023-05-25T17:15:47.334Z,22.77
2023-05-25T17:18:15.801Z,22.78
2023-05-25T17:20:45.302Z,22.80
2023-05-25T17:23:13.103Z,22.83
2023-05-25T17:25:40.884Z,23.10
2023-05-25T17:28:08.918Z,23.01
2023-05-25T17:30:36.867Z,22.79
2023-05-25T17:33:04.838Z,22.37
2023-05-25T17:35:32.808Z,22.23
2023-05-25T17:38:01.931Z,22.45
2023-05-25T17:40:29.794Z,22.84
2023-05-25T17:42:57.605Z,22.55
2023-05-25T17:45:25.526Z,22.81
2023-05-25T17:47:53.337Z,22.41
2023-05-25T17:50:21.115Z,22.09
2023-05-25T17:52:48.837Z,22.21
2023-05-25T17:55:17.981Z,22.45
2023-05-25T17:57:45.804Z,22.36
2023-05-25T18:00:15.521Z,22.62
2023-05-25T18:02:43.374Z,21.71
2023-05-25T18:05:11.136Z,21.89
2023-05-25T18:07:38.900Z,21.80
2023-05-25T18:10:07.288Z,21.85
2023-05-25T18:12:36.514Z,22.02
2023-05-25T18:15:04.412Z,21.86
2023-05-25T18:17:32.225Z,21.31
2023-05-25T18:20:00.154Z,21.50
2023-05-25T18:22:27.999Z,21.48
2023-05-25T18:24:55.810Z,21.28
2023-05-25T18:27:23.595Z,21.54
2023-05-25T18:29:52.656Z,21.72
2023-05-25T18:32:20.514Z,21.31
2023-05-25T18:34:48.533Z,21.58
2023-05-25T18:37:16.291Z,21.21
2023-05-25T18:39:44.048Z,21.10
2023-05-25T18:42:11.764Z,21.11
2023-05-25T18:44:40.125Z,20.88
2023-05-25T18:47:09.302Z,20.96
2023-05-25T18:49:37.996Z,21.07
2023-05-25T18:52:06.526Z,20.67
2023-05-25T18:54:34.215Z,20.70
2023-05-25T18:57:03.028Z,20.34
2023-05-25T18:59:31.501Z,20.37
2023-05-25T19:01:59.291Z,20.63
2023-05-25T19:04:28.496Z,20.75
2023-05-25T19:06:56.273Z,20.68
2023-05-25T19:09:23.987Z,20.60
2023-05-25T19:11:51.825Z,20.77
2023-05-25T19:14:19.679Z,20.33
2023-05-25T19:16:48.717Z,20.15
2023-05-25T19:19:16.929Z,20.79
2023-05-25T19:21:46.274Z,20.43
2023-05-25T19:24:14.051Z,20.07
2023-05-25T19:26:41.812Z,20.24
2023-05-25T19:29:09.611Z,20.09
2023-05-25T19:31:37.530Z,20.46
2023-05-25T19:34:05.306Z,19.89
2023-05-25T19:36:33.189Z,19.85
2023-05-25T19:39:02.313Z,19.60
2023-05-25T19:41:30.193Z,19.91
2023-05-25T19:43:57.981Z,19.40
2023-05-25T19:46:25.756Z,19.23
2023-05-25T19:48:53.583Z,19.45
2023-05-25T19:51:21.519Z,19.65
2023-05-25T19:53:51.336Z,19.29
2023-05-25T19:56:21.298Z,19.18
2023-05-25T19:58:49.439Z,19.35
2023-05-25T20:01:17.449Z,19.10
2023-05-25T20:03:45.834Z,19.08
2023-05-25T20:06:13.744Z,19.11
2023-05-25T20:08:41.514Z,19.16
2023-05-25T20:11:09.235Z,19.12
2023-05-25T20:13:38.456Z,19.01
2023-05-25T20:16:09.976Z,19.02
2023-05-25T20:18:38.121Z,18.47
2023-05-25T20:21:06.201Z,18.52
2023-05-25T20:23:33.917Z,18.79
2023-05-25T20:26:01.678Z,18.84
2023-05-25T20:28:29.466Z,18.86
2023-05-25T20:30:58.575Z,18.67
2023-05-25T20:33:26.332Z,18.82
2023-05-25T20:35:54.064Z,18.84
2023-05-25T20:38:21.779Z,18.66
2023-05-25T20:40:49.539Z,18.97
2023-05-25T20:43:17.330Z,18.73
2023-05-25T20:45:45.238Z,18.63
2023-05-25T20:48:15.453Z,18.67
2023-05-25T20:50:43.192Z,18.52
2023-05-25T20:53:11.616Z,18.59
2023-05-25T20:55:39.457Z,18.49
2023-05-25T20:58:07.225Z,18.51
2023-05-25T21:00:35.313Z,18.53
2023-05-25T21:03:04.855Z,18.28
2023-05-25T21:05:34.064Z,18.45
2023-05-25T21:08:03.446Z,17.85
2023-05-25T21:10:31.279Z,18.02
2023-05-25T21:12:59.031Z,18.09
2023-05-25T21:15:27.469Z,17.84
2023-05-25T21:17:55.347Z,18.03
2023-05-25T21:20:23.200Z,18.03
2023-05-25T21:22:52.373Z,17.96
2023-05-25T21:25:20.159Z,17.61
2023-05-25T21:27:48.012Z,17.87
2023-05-25T21:30:16.112Z,18.00
2023-05-25T21:32:43.950Z,17.60
2023-05-25T21:35:11.779Z,17.69
2023-05-25T21:37:39.576Z,17.43
2023-05-25T21:40:09.747Z,17.56
2023-05-25T21:42:37.509Z,17.97
2023-05-25T21:45:05.951Z,17.49
2023-05-25T21:47:33.975Z,17.57
2023-05-25T21:50:01.806Z,17.41
2023-05-25T21:52:29.567Z,17.09
2023-05-25T21:54:57.921Z,17.31
2023-05-25T21:57:27.039Z,17.33
2023-05-25T21:59:54.919Z,17.42
2023-05-25T22:02:24.330Z,17.29
2023-05-25T22:04:52.225Z,17.29
2023-05-25T22:07:19.991Z,17.08
2023-05-25T22:09:47.713Z,17.27
2023-05-25T22:12:15.453Z,17.20
2023-05-25T22:14:44.598Z,17.32
2023-05-25T22:17:12.743Z,17.16
2023-05-25T22:19:41.829Z,17.30
2023-05-25T22:22:11.081Z,17.14
2023-05-25T22:24:38.865Z,16.95
2023-05-25T22:27:07.585Z,16.77
2023-05-25T22:29:35.300Z,17.00
2023-05-25T22:32:04.610Z,17.11
2023-05-25T22:34:32.351Z,16.71
2023-05-25T22:37:00.127Z,17.17
2023-05-25T22:39:27.902Z,17.07
2023-05-25T22:41:55.809Z,16.89
2023-05-25T22:44:23.561Z,16.86
2023-05-25T22:46:51.471Z,17.04
2023-05-25T22:49:20.746Z,16.98
2023-05-25T22:51:48.566Z,16.79
2023-05-25T22:54:16.375Z,16.90
2023-05-25T22:56:44.149Z,16.78
2023-05-25T22:59:12.299Z,16.96
2023-05-25T23:01:40.162Z,16.75
2023-05-25T23:04:08.914Z,16.50
2023-05-25T23:06:38.218Z,16.38
2023-05-25T23:09:05.997Z,16.50
2023-05-25T23:11:33.717Z,16.43
2023-05-25T23:14:01.758Z,16.38
2023-05-25T23:16:29.723Z,16.44
2023-05-25T23:18:57.632Z,16.27
2023-05-25T23:21:25.402Z,16.42
2023-05-25T23:23:54.570Z,16.20
2023-05-25T23:26:22.341Z,16.45
2023-05-25T23:28:50.134Z,16.31
2023-05-25T23:31:18.051Z,16.27
2023-05-25T23:33:45.882Z,16.57
2023-05-25T23:36:14.091Z,16.49
2023-05-25T23:38:41.947Z,16.45
2023-05-25T23:41:11.113Z,16.60
2023-05-25T23:43:38.873Z,16.31
2023-05-25T23:46:07.324Z,16.31
2023-05-25T23:48:35.128Z,16.14
2023-05-25T23:51:02.844Z,16.18
2023-05-25T23:53:30.599Z,15.84
2023-05-25T23:55:58.367Z,16.14
2023-05-25T23:58:27.467Z,16.04
